sensor_id;sensor_type;location;lat;lon;timestamp;pressure;altitude;pressure_sealevel;temperature;humidity
75219;BME280;63801;49.414;19.474;2022-11-15T00:01:31;94147.09;;;0.73;75.92
75219;BME280;63801;49.414;19.474;2022-11-15T00:03:31;94153.19;;;0.73;75.55
75219;BME280;63801;49.414;19.474;2022-11-15T00:05:34;94152.41;;;0.73;75.79
75219;BME280;63801;49.414;19.474;2022-11-15T00:07:35;94157.72;;;0.73;76.02
75219;BME280;63801;49.414;19.474;2022-11-15T00:09:36;94154.56;;;0.71;76.01
75219;BME280;63801;49.414;19.474;2022-11-15T00:11:36;94148.72;;;0.69;76.08
75219;BME280;63801;49.414;19.474;2022-11-15T00:13:36;94156.69;;;0.69;75.98
75219;BME280;63801;49.414;19.474;2022-11-15T00:15:38;94145.84;;;0.65;75.91
75219;BME280;63801;49.414;19.474;2022-11-15T00:17:39;94146.63;;;0.66;75.73
75219;BME280;63801;49.414;19.474;2022-11-15T00:19:39;94151.94;;;0.66;75.85
75219;BME280;63801;49.414;19.474;2022-11-15T00:21:39;94144.50;;;0.63;75.91
75219;BME280;63801;49.414;19.474;2022-11-15T00:23:40;94143.72;;;0.62;75.86
75219;BME280;63801;49.414;19.474;2022-11-15T00:25:40;94145.31;;;0.63;76.18
75219;BME280;63801;49.414;19.474;2022-11-15T00:27:41;94145.03;;;0.65;76.00
75219;BME280;63801;49.414;19.474;2022-11-15T00:29:41;94124.19;;;0.53;76.10
75219;BME280;63801;49.414;19.474;2022-11-15T00:31:43;94134.44;;;0.65;76.27
75219;BME280;63801;49.414;19.474;2022-11-15T00:33:44;94138.66;;;0.71;76.23
75219;BME280;63801;49.414;19.474;2022-11-15T00:35:45;94134.91;;;0.72;76.05
75219;BME280;63801;49.414;19.474;2022-11-15T00:37:45;94131.19;;;0.73;76.37
75219;BME280;63801;49.414;19.474;2022-11-15T00:39:47;94131.97;;;0.73;75.97
75219;BME280;63801;49.414;19.474;2022-11-15T00:41:47;94125.88;;;0.73;76.03
75219;BME280;63801;49.414;19.474;2022-11-15T00:43:47;94134.63;;;0.73;76.11
75219;BME280;63801;49.414;19.474;2022-11-15T00:45:48;94122.16;;;0.74;75.88
75219;BME280;63801;49.414;19.474;2022-11-15T00:47:48;94128.53;;;0.73;75.87
75219;BME280;63801;49.414;19.474;2022-11-15T00:49:48;94118.50;;;0.70;75.85
75219;BME280;63801;49.414;19.474;2022-11-15T00:51:49;94118.75;;;0.68;75.85
75219;BME280;63801;49.414;19.474;2022-11-15T00:53:49;94098.16;;;0.55;76.13
75219;BME280;63801;49.414;19.474;2022-11-15T00:55:49;94116.94;;;0.64;76.03
75219;BME280;63801;49.414;19.474;2022-11-15T00:57:49;94122.25;;;0.64;75.97
75219;BME280;63801;49.414;19.474;2022-11-15T00:59:50;94110.03;;;0.63;76.12
75219;BME280;63801;49.414;19.474;2022-11-15T01:01:50;94121.97;;;0.65;76.32
75219;BME280;63801;49.414;19.474;2022-11-15T01:03:50;94115.88;;;0.65;76.07
75219;BME280;63801;49.414;19.474;2022-11-15T01:05:51;94108.47;;;0.62;75.99
75219;BME280;63801;49.414;19.474;2022-11-15T01:07:55;94114.84;;;0.61;76.06
75219;BME280;63801;49.414;19.474;2022-11-15T01:09:55;94107.72;;;0.56;76.25
75219;BME280;63801;49.414;19.474;2022-11-15T01:11:56;94110.63;;;0.55;76.20
75219;BME280;63801;49.414;19.474;2022-11-15T01:13:56;94110.13;;;0.53;76.54
75219;BME280;63801;49.414;19.474;2022-11-15T01:15:56;94100.31;;;0.53;76.36
75219;BME280;63801;49.414;19.474;2022-11-15T01:17:57;94109.34;;;0.52;76.29
75219;BME280;63801;49.414;19.474;2022-11-15T01:19:57;94100.59;;;0.52;76.32
75219;BME280;63801;49.414;19.474;2022-11-15T01:21:57;94104.03;;;0.52;76.20
75219;BME280;63801;49.414;19.474;2022-11-15T01:23:58;94095.78;;;0.54;76.38
75219;BME280;63801;49.414;19.474;2022-11-15T01:26:02;94088.16;;;0.47;76.35
75219;BME280;63801;49.414;19.474;2022-11-15T01:28:03;94096.03;;;0.57;76.38
75219;BME280;63801;49.414;19.474;2022-11-15T01:30:04;94091.50;;;0.58;76.28
75219;BME280;63801;49.414;19.474;2022-11-15T01:32:04;94092.59;;;0.57;76.07
75219;BME280;63801;49.414;19.474;2022-11-15T01:34:05;94096.06;;;0.52;76.00
75219;BME280;63801;49.414;19.474;2022-11-15T01:36:07;94092.41;;;0.48;75.92
75219;BME280;63801;49.414;19.474;2022-11-15T01:38:07;94092.69;;;0.41;75.90
75219;BME280;63801;49.414;19.474;2022-11-15T01:40:08;94068.47;;;0.19;76.21
75219;BME280;63801;49.414;19.474;2022-11-15T01:42:14;94085.91;;;0.30;75.94
75219;BME280;63801;49.414;19.474;2022-11-15T01:46:34;94086.16;;;0.29;76.23
75219;BME280;63801;49.414;19.474;2022-11-15T01:48:36;94079.81;;;0.30;76.25
75219;BME280;63801;49.414;19.474;2022-11-15T01:50:36;94083.25;;;0.30;76.40
75219;BME280;63801;49.414;19.474;2022-11-15T01:52:37;94084.31;;;0.29;76.31
75219;BME280;63801;49.414;19.474;2022-11-15T01:54:38;94080.59;;;0.30;76.33
75219;BME280;63801;49.414;19.474;2022-11-15T01:56:43;94075.28;;;0.30;76.39
75219;BME280;63801;49.414;19.474;2022-11-15T01:58:45;94070.50;;;0.32;76.47
75219;BME280;63801;49.414;19.474;2022-11-15T02:00:46;94073.94;;;0.33;76.34
75219;BME280;63801;49.414;19.474;2022-11-15T02:02:47;94071.53;;;0.36;76.54
75219;BME280;63801;49.414;19.474;2022-11-15T02:04:48;94048.53;;;0.27;76.46
75219;BME280;63801;49.414;19.474;2022-11-15T02:06:48;94065.91;;;0.43;76.75
75219;BME280;63801;49.414;19.474;2022-11-15T02:08:49;94068.00;;;0.46;76.45
75219;BME280;63801;49.414;19.474;2022-11-15T02:10:50;94058.22;;;0.41;76.74
75219;BME280;63801;49.414;19.474;2022-11-15T02:12:51;94069.25;;;0.54;76.87
75219;BME280;63801;49.414;19.474;2022-11-15T02:14:54;94065.28;;;0.56;76.56
75219;BME280;63801;49.414;19.474;2022-11-15T02:21:36;94056.56;;;0.51;76.50
75219;BME280;63801;49.414;19.474;2022-11-15T02:30:59;94048.69;;;0.40;76.58
75219;BME280;63801;49.414;19.474;2022-11-15T02:35:40;94055.56;;;0.41;76.62
75219;BME280;63801;49.414;19.474;2022-11-15T02:37:52;94055.63;;;0.36;76.37
75219;BME280;63801;49.414;19.474;2022-11-15T02:42:14;94038.75;;;0.22;76.46
75219;BME280;63801;49.414;19.474;2022-11-15T02:44:37;94048.25;;;0.28;76.63
75219;BME280;63801;49.414;19.474;2022-11-15T02:46:45;94036.09;;;0.22;76.70
75219;BME280;63801;49.414;19.474;2022-11-15T02:49:07;94054.88;;;0.31;76.57
75219;BME280;63801;49.414;19.474;2022-11-15T02:51:08;94042.41;;;0.31;76.90
75219;BME280;63801;49.414;19.474;2022-11-15T02:53:09;94046.94;;;0.31;76.64
75219;BME280;63801;49.414;19.474;2022-11-15T02:55:36;94022.91;;;0.17;76.68
75219;BME280;63801;49.414;19.474;2022-11-15T02:57:39;94043.22;;;0.27;76.59
75219;BME280;63801;49.414;19.474;2022-11-15T03:00:01;94052.00;;;0.22;76.46
75219;BME280;63801;49.414;19.474;2022-11-15T03:02:31;94039.59;;;0.18;76.46
75219;BME280;63801;49.414;19.474;2022-11-15T03:04:53;94045.22;;;0.11;76.71
75219;BME280;63801;49.414;19.474;2022-11-15T03:07:36;94045.22;;;0.06;76.54
75219;BME280;63801;49.414;19.474;2022-11-15T03:09:35;94046.06;;;0.02;76.54
75219;BME280;63801;49.414;19.474;2022-11-15T03:11:47;94033.41;;;-0.07;76.82
75219;BME280;63801;49.414;19.474;2022-11-15T03:16:19;94045.34;;;-0.09;76.54
75219;BME280;63801;49.414;19.474;2022-11-15T03:18:30;94045.09;;;-0.13;76.69
75219;BME280;63801;49.414;19.474;2022-11-15T03:20:34;94044.06;;;-0.17;76.44
75219;BME280;63801;49.414;19.474;2022-11-15T03:22:38;94039.31;;;-0.20;76.81
75219;BME280;63801;49.414;19.474;2022-11-15T03:24:42;94035.06;;;-0.21;76.56
75219;BME280;63801;49.414;19.474;2022-11-15T03:26:44;94039.56;;;-0.21;76.57
75219;BME280;63801;49.414;19.474;2022-11-15T03:30:50;94030.59;;;-0.25;77.18
75219;BME280;63801;49.414;19.474;2022-11-15T03:32:55;94036.13;;;-0.22;76.81
75219;BME280;63801;49.414;19.474;2022-11-15T03:35:06;94028.47;;;-0.23;77.32
75219;BME280;63801;49.414;19.474;2022-11-15T03:37:08;94028.47;;;-0.23;76.93
75219;BME280;63801;49.414;19.474;2022-11-15T03:39:11;94024.78;;;-0.22;76.90
75219;BME280;63801;49.414;19.474;2022-11-15T03:41:23;94027.41;;;-0.22;77.10
75219;BME280;63801;49.414;19.474;2022-11-15T03:43:35;94021.03;;;-0.21;77.18
75219;BME280;63801;49.414;19.474;2022-11-15T03:45:45;94019.47;;;-0.22;76.91
75219;BME280;63801;49.414;19.474;2022-11-15T03:49:59;94015.50;;;-0.25;76.88
75219;BME280;63801;49.414;19.474;2022-11-15T03:52:03;94016.56;;;-0.26;77.03
75219;BME280;63801;49.414;19.474;2022-11-15T03:54:04;94019.75;;;-0.29;76.92
75219;BME280;63801;49.414;19.474;2022-11-15T03:56:05;94022.16;;;-0.27;77.00
75219;BME280;63801;49.414;19.474;2022-11-15T03:58:05;94020.28;;;-0.27;76.91
75219;BME280;63801;49.414;19.474;2022-11-15T04:00:06;94009.72;;;-0.32;77.17
75219;BME280;63801;49.414;19.474;2022-11-15T04:02:07;94012.59;;;-0.23;77.12
75219;BME280;63801;49.414;19.474;2022-11-15T04:04:07;93998.81;;;-0.25;77.04
75219;BME280;63801;49.414;19.474;2022-11-15T04:06:07;94015.47;;;-0.20;77.29
75219;BME280;63801;49.414;19.474;2022-11-15T04:08:08;94000.94;;;-0.22;77.17
75219;BME280;63801;49.414;19.474;2022-11-15T04:10:10;94006.16;;;-0.17;77.15
75219;BME280;63801;49.414;19.474;2022-11-15T04:12:11;93992.94;;;-0.17;77.20
75219;BME280;63801;49.414;19.474;2022-11-15T04:14:11;94000.59;;;-0.16;76.90
75219;BME280;63801;49.414;19.474;2022-11-15T04:16:11;93991.88;;;-0.16;77.09
75219;BME280;63801;49.414;19.474;2022-11-15T04:18:12;93995.84;;;-0.14;77.09
75219;BME280;63801;49.414;19.474;2022-11-15T04:20:29;93999.00;;;-0.12;77.09
75219;BME280;63801;49.414;19.474;2022-11-15T04:22:48;93993.91;;;-0.08;76.94
75219;BME280;63801;49.414;19.474;2022-11-15T04:25:07;93988.09;;;-0.05;77.01
75219;BME280;63801;49.414;19.474;2022-11-15T04:27:08;93987.53;;;-0.02;77.24
75219;BME280;63801;49.414;19.474;2022-11-15T04:29:08;93980.13;;;0.00;77.15
75219;BME280;63801;49.414;19.474;2022-11-15T04:31:27;93980.13;;;0.00;77.17
75219;BME280;63801;49.414;19.474;2022-11-15T04:33:28;93981.66;;;0.01;77.12
75219;BME280;63801;49.414;19.474;2022-11-15T04:35:28;93988.56;;;0.02;76.91
75219;BME280;63801;49.414;19.474;2022-11-15T04:37:29;93981.66;;;0.01;77.15
75219;BME280;63801;49.414;19.474;2022-11-15T04:39:29;93980.59;;;0.02;76.72
75219;BME280;63801;49.414;19.474;2022-11-15T04:41:30;93956.59;;;-0.12;76.84
75219;BME280;63801;49.414;19.474;2022-11-15T04:43:30;93972.41;;;0.04;76.81
75219;BME280;63801;49.414;19.474;2022-11-15T04:45:30;93972.09;;;0.05;76.83
75219;BME280;63801;49.414;19.474;2022-11-15T04:47:30;93974.47;;;0.07;76.89
75219;BME280;63801;49.414;19.474;2022-11-15T04:49:31;93953.69;;;-0.10;76.77
75219;BME280;63801;49.414;19.474;2022-11-15T04:51:31;93969.97;;;0.07;76.79
75219;BME280;63801;49.414;19.474;2022-11-15T04:53:32;93971.84;;;0.07;77.02
75219;BME280;63801;49.414;19.474;2022-11-15T04:55:35;93957.31;;;-0.01;77.16
75219;BME280;63801;49.414;19.474;2022-11-15T04:57:36;93970.78;;;0.08;76.95
75219;BME280;63801;49.414;19.474;2022-11-15T04:59:36;93964.69;;;0.07;76.90
75219;BME280;63801;49.414;19.474;2022-11-15T05:01:36;93966.25;;;0.08;76.88
75219;BME280;63801;49.414;19.474;2022-11-15T05:03:37;93958.31;;;0.08;76.81
75219;BME280;63801;49.414;19.474;2022-11-15T05:05:57;93959.09;;;0.09;76.89
75219;BME280;63801;49.414;19.474;2022-11-15T05:07:57;93959.38;;;0.07;77.13
75219;BME280;63801;49.414;19.474;2022-11-15T05:09:58;93959.63;;;0.06;76.89
75219;BME280;63801;49.414;19.474;2022-11-15T05:11:58;93959.38;;;0.07;77.17
75219;BME280;63801;49.414;19.474;2022-11-15T05:13:58;93955.66;;;0.08;77.11
75219;BME280;63801;49.414;19.474;2022-11-15T05:15:58;93953.31;;;0.02;77.25
75219;BME280;63801;49.414;19.474;2022-11-15T05:17:59;93964.69;;;0.07;77.18
75219;BME280;63801;49.414;19.474;2022-11-15T05:20:00;93942.75;;;-0.04;77.16
75219;BME280;63801;49.414;19.474;2022-11-15T05:22:00;93956.72;;;0.07;77.22
75219;BME280;63801;49.414;19.474;2022-11-15T05:24:01;93954.06;;;0.07;77.04
75219;BME280;63801;49.414;19.474;2022-11-15T05:26:03;93954.88;;;0.08;76.98
75219;BME280;63801;49.414;19.474;2022-11-15T05:28:04;93947.19;;;0.06;76.98
75219;BME280;63801;49.414;19.474;2022-11-15T05:30:05;93953.00;;;0.08;77.17
75219;BME280;63801;49.414;19.474;2022-11-15T05:32:06;93942.69;;;0.07;77.12
75219;BME280;63801;49.414;19.474;2022-11-15T05:34:08;93936.59;;;0.06;77.16
75219;BME280;63801;49.414;19.474;2022-11-15T05:36:29;93940.81;;;0.07;77.06
75219;BME280;63801;49.414;19.474;2022-11-15T05:38:31;93925.00;;;-0.03;77.17
75219;BME280;63801;49.414;19.474;2022-11-15T05:40:32;93933.66;;;0.08;77.33
75219;BME280;63801;49.414;19.474;2022-11-15T05:42:33;93928.13;;;0.04;77.19
75219;BME280;63801;49.414;19.474;2022-11-15T05:44:33;93935.25;;;0.09;77.22
75219;BME280;63801;49.414;19.474;2022-11-15T05:46:37;93930.50;;;0.06;77.33
75219;BME280;63801;49.414;19.474;2022-11-15T05:48:41;93929.38;;;0.12;77.19
75219;BME280;63801;49.414;19.474;2022-11-15T05:50:46;93929.88;;;0.14;77.42
75219;BME280;63801;49.414;19.474;2022-11-15T05:52:47;93927.53;;;0.12;77.25
75219;BME280;63801;49.414;19.474;2022-11-15T05:54:48;93938.63;;;0.14;76.86
75219;BME280;63801;49.414;19.474;2022-11-15T05:56:49;93924.09;;;0.12;77.45
75219;BME280;63801;49.414;19.474;2022-11-15T05:58:49;93929.63;;;0.15;77.36
75219;BME280;63801;49.414;19.474;2022-11-15T06:00:51;93935.72;;;0.16;77.32
75219;BME280;63801;49.414;19.474;2022-11-15T06:02:51;93932.28;;;0.15;77.22
75219;BME280;63801;49.414;19.474;2022-11-15T06:04:52;93930.69;;;0.14;77.06
75219;BME280;63801;49.414;19.474;2022-11-15T06:06:52;93925.13;;;0.16;77.05
75219;BME280;63801;49.414;19.474;2022-11-15T06:08:52;93928.28;;;0.18;77.06
75219;BME280;63801;49.414;19.474;2022-11-15T06:10:53;93934.34;;;0.18;77.43
75219;BME280;63801;49.414;19.474;2022-11-15T06:13:00;93920.84;;;0.20;77.29
75219;BME280;63801;49.414;19.474;2022-11-15T06:15:01;93921.28;;;0.27;77.34
75219;BME280;63801;49.414;19.474;2022-11-15T06:17:01;93923.09;;;0.31;77.49
75219;BME280;63801;49.414;19.474;2022-11-15T06:19:02;93919.34;;;0.37;77.28
75219;BME280;63801;49.414;19.474;2022-11-15T06:21:03;93919.28;;;0.42;77.53
75219;BME280;63801;49.414;19.474;2022-11-15T06:23:04;93928.69;;;0.54;77.56
75219;BME280;63801;49.414;19.474;2022-11-15T06:25:05;93918.03;;;0.59;77.58
75219;BME280;63801;49.414;19.474;2022-11-15T06:27:05;93925.38;;;0.67;77.56
75219;BME280;63801;49.414;19.474;2022-11-15T06:29:05;93921.34;;;0.74;77.74
75219;BME280;63801;49.414;19.474;2022-11-15T06:31:10;93914.34;;;0.83;77.48
75219;BME280;63801;49.414;19.474;2022-11-15T06:33:11;93916.13;;;0.88;77.63
75219;BME280;63801;49.414;19.474;2022-11-15T06:35:11;93921.34;;;0.93;77.34
75219;BME280;63801;49.414;19.474;2022-11-15T06:37:12;93915.50;;;0.96;77.51
75219;BME280;63801;49.414;19.474;2022-11-15T06:39:12;93916.50;;;1.00;77.55
75219;BME280;63801;49.414;19.474;2022-11-15T06:41:13;93913.00;;;1.05;77.50
75219;BME280;63801;49.414;19.474;2022-11-15T06:43:13;93915.88;;;1.08;77.52
75219;BME280;63801;49.414;19.474;2022-11-15T06:45:14;93910.06;;;1.06;77.45
75219;BME280;63801;49.414;19.474;2022-11-15T06:47:15;93915.53;;;1.15;77.23
75219;BME280;63801;49.414;19.474;2022-11-15T06:49:15;93917.41;;;1.14;77.42
75219;BME280;63801;49.414;19.474;2022-11-15T06:51:17;93923.41;;;1.20;77.46
75219;BME280;63801;49.414;19.474;2022-11-15T06:53:17;93916.75;;;1.22;77.29
75219;BME280;63801;49.414;19.474;2022-11-15T06:55:17;93921.50;;;1.25;77.24
75219;BME280;63801;49.414;19.474;2022-11-15T06:57:18;93917.19;;;1.29;77.23
75219;BME280;63801;49.414;19.474;2022-11-15T06:59:18;93915.59;;;1.28;77.58
75219;BME280;63801;49.414;19.474;2022-11-15T07:01:18;93910.16;;;1.39;77.58
75219;BME280;63801;49.414;19.474;2022-11-15T07:03:19;93911.94;;;1.43;77.93
75219;BME280;63801;49.414;19.474;2022-11-15T07:05:19;93914.53;;;1.48;77.42
75219;BME280;63801;49.414;19.474;2022-11-15T07:07:19;93913.16;;;1.51;77.29
75219;BME280;63801;49.414;19.474;2022-11-15T07:09:20;93917.41;;;1.52;77.65
75219;BME280;63801;49.414;19.474;2022-11-15T07:11:20;93910.59;;;1.46;77.14
75219;BME280;63801;49.414;19.474;2022-11-15T07:13:24;93911.81;;;1.53;77.46
75219;BME280;63801;49.414;19.474;2022-11-15T07:15:25;93918.72;;;1.54;77.26
75219;BME280;63801;49.414;19.474;2022-11-15T07:17:26;93914.19;;;1.55;77.39
75219;BME280;63801;49.414;19.474;2022-11-15T07:19:26;93917.84;;;1.59;77.30
75219;BME280;63801;49.414;19.474;2022-11-15T07:21:26;93910.94;;;1.58;77.11
75219;BME280;63801;49.414;19.474;2022-11-15T07:23:27;93910.09;;;1.62;77.49
75219;BME280;63801;49.414;19.474;2022-11-15T07:25:27;93901.59;;;1.60;77.32
75219;BME280;63801;49.414;19.474;2022-11-15T07:27:28;93910.03;;;1.67;77.54
75219;BME280;63801;49.414;19.474;2022-11-15T07:29:28;93902.25;;;1.71;77.55
75219;BME280;63801;49.414;19.474;2022-11-15T07:31:28;93897.16;;;1.74;77.59
75219;BME280;63801;49.414;19.474;2022-11-15T07:33:28;93892.25;;;1.81;77.48
75219;BME280;63801;49.414;19.474;2022-11-15T07:35:29;93889.50;;;1.87;77.74
75219;BME280;63801;49.414;19.474;2022-11-15T07:37:30;93897.41;;;1.92;77.50
75219;BME280;63801;49.414;19.474;2022-11-15T07:39:30;93885.19;;;1.91;77.75
75219;BME280;63801;49.414;19.474;2022-11-15T07:41:30;93894.31;;;2.03;77.67
75219;BME280;63801;49.414;19.474;2022-11-15T07:43:31;93890.19;;;2.11;77.84
75219;BME280;63801;49.414;19.474;2022-11-15T07:45:34;93881.81;;;2.17;77.83
75219;BME280;63801;49.414;19.474;2022-11-15T07:47:34;93893.06;;;2.28;78.01
75219;BME280;63801;49.414;19.474;2022-11-15T07:49:34;93890.53;;;2.37;77.89
75219;BME280;63801;49.414;19.474;2022-11-15T07:51:35;93897.34;;;2.43;77.62
75219;BME280;63801;49.414;19.474;2022-11-15T07:53:35;93893.81;;;2.47;77.46
75219;BME280;63801;49.414;19.474;2022-11-15T07:55:36;93894.28;;;2.49;77.52
75219;BME280;63801;49.414;19.474;2022-11-15T07:57:36;93889.66;;;2.55;77.57
75219;BME280;63801;49.414;19.474;2022-11-15T07:59:36;93886.13;;;2.59;77.61
75219;BME280;63801;49.414;19.474;2022-11-15T08:01:37;93885.72;;;2.66;77.49
75219;BME280;63801;49.414;19.474;2022-11-15T08:03:37;93885.13;;;2.69;77.53
75219;BME280;63801;49.414;19.474;2022-11-15T08:05:38;93873.69;;;2.68;77.50
75219;BME280;63801;49.414;19.474;2022-11-15T08:07:39;93883.56;;;2.68;77.32
75219;BME280;63801;49.414;19.474;2022-11-15T08:09:40;93870.34;;;2.63;77.36
75219;BME280;63801;49.414;19.474;2022-11-15T08:11:40;93874.69;;;2.59;77.18
75219;BME280;63801;49.414;19.474;2022-11-15T08:13:41;93846.47;;;2.44;76.93
75219;BME280;63801;49.414;19.474;2022-11-15T08:15:41;93849.16;;;2.44;77.07
75219;BME280;63801;49.414;19.474;2022-11-15T08:17:43;93850.44;;;2.47;77.31
75219;BME280;63801;49.414;19.474;2022-11-15T08:19:43;93851.13;;;2.52;77.53
75219;BME280;63801;49.414;19.474;2022-11-15T08:21:44;93856.34;;;2.57;77.46
75219;BME280;63801;49.414;19.474;2022-11-15T08:23:44;93834.88;;;2.54;77.52
75219;BME280;63801;49.414;19.474;2022-11-15T08:25:45;93850.94;;;2.62;77.58
75219;BME280;63801;49.414;19.474;2022-11-15T08:27:45;93844.13;;;2.70;77.48
75219;BME280;63801;49.414;19.474;2022-11-15T08:29:46;93850.63;;;2.78;77.52
75219;BME280;63801;49.414;19.474;2022-11-15T08:31:47;93848.66;;;2.83;77.79
75219;BME280;63801;49.414;19.474;2022-11-15T08:33:47;93848.44;;;2.93;77.94
75219;BME280;63801;49.414;19.474;2022-11-15T08:35:48;93846.66;;;3.02;77.81
75219;BME280;63801;49.414;19.474;2022-11-15T08:37:48;93840.31;;;3.12;77.75
75219;BME280;63801;49.414;19.474;2022-11-15T08:39:48;93846.03;;;3.19;77.52
75219;BME280;63801;49.414;19.474;2022-11-15T08:41:49;93846.72;;;3.25;77.77
75219;BME280;63801;49.414;19.474;2022-11-15T08:43:49;93845.03;;;3.29;77.63
75219;BME280;63801;49.414;19.474;2022-11-15T08:45:49;93846.78;;;3.33;77.36
75219;BME280;63801;49.414;19.474;2022-11-15T08:47:50;93844.81;;;3.39;77.53
75219;BME280;63801;49.414;19.474;2022-11-15T08:49:50;93837.28;;;3.41;77.42
75219;BME280;63801;49.414;19.474;2022-11-15T08:51:50;93844.88;;;3.47;77.33
75219;BME280;63801;49.414;19.474;2022-11-15T08:53:51;93844.25;;;3.50;77.38
75219;BME280;63801;49.414;19.474;2022-11-15T08:55:51;93843.34;;;3.55;77.67
75219;BME280;63801;49.414;19.474;2022-11-15T08:57:51;93843.25;;;3.60;77.50
75219;BME280;63801;49.414;19.474;2022-11-15T08:59:52;93841.06;;;3.62;77.32
75219;BME280;63801;49.414;19.474;2022-11-15T09:01:52;93833.53;;;3.64;77.36
75219;BME280;63801;49.414;19.474;2022-11-15T09:03:52;93837.69;;;3.70;77.45
75219;BME280;63801;49.414;19.474;2022-11-15T09:05:57;93835.38;;;3.77;77.48
75219;BME280;63801;49.414;19.474;2022-11-15T09:07:58;93841.06;;;3.84;77.49
75219;BME280;63801;49.414;19.474;2022-11-15T09:09:58;93840.34;;;3.92;77.47
75219;BME280;63801;49.414;19.474;2022-11-15T09:11:59;93819.47;;;3.94;77.27
75219;BME280;63801;49.414;19.474;2022-11-15T09:13:59;93834.63;;;4.07;77.54
75219;BME280;63801;49.414;19.474;2022-11-15T09:16:00;93828.06;;;4.14;77.44
75219;BME280;63801;49.414;19.474;2022-11-15T09:18:01;93822.59;;;4.19;77.20
75219;BME280;63801;49.414;19.474;2022-11-15T09:20:01;93825.44;;;4.22;77.33
75219;BME280;63801;49.414;19.474;2022-11-15T09:22:05;93826.41;;;4.26;77.20
75219;BME280;63801;49.414;19.474;2022-11-15T09:24:06;93820.44;;;4.29;77.17
75219;BME280;63801;49.414;19.474;2022-11-15T09:26:07;93812.44;;;4.29;76.88
75219;BME280;63801;49.414;19.474;2022-11-15T09:28:08;93808.84;;;4.34;77.26
75219;BME280;63801;49.414;19.474;2022-11-15T09:30:08;93797.09;;;4.35;77.21
75219;BME280;63801;49.414;19.474;2022-11-15T09:32:09;93804.38;;;4.51;77.41
75219;BME280;63801;49.414;19.474;2022-11-15T09:34:09;93792.16;;;4.59;77.29
75219;BME280;63801;49.414;19.474;2022-11-15T09:36:09;93801.44;;;4.70;77.02
75219;BME280;63801;49.414;19.474;2022-11-15T09:38:10;93796.91;;;4.79;76.95
75219;BME280;63801;49.414;19.474;2022-11-15T09:40:13;93799.63;;;4.88;76.89
75219;BME280;63801;49.414;19.474;2022-11-15T09:42:43;93792.09;;;4.98;76.97
75219;BME280;63801;49.414;19.474;2022-11-15T09:44:59;93784.56;;;5.09;76.92
75219;BME280;63801;49.414;19.474;2022-11-15T09:49:09;93769.81;;;5.20;76.79
75219;BME280;63801;49.414;19.474;2022-11-15T09:51:32;93774.50;;;5.40;77.01
75219;BME280;63801;49.414;19.474;2022-11-15T09:53:41;93776.56;;;5.52;76.99
75219;BME280;63801;49.414;19.474;2022-11-15T09:56:03;93764.78;;;5.62;76.88
75219;BME280;63801;49.414;19.474;2022-11-15T09:58:33;93767.72;;;5.77;76.86
75219;BME280;63801;49.414;19.474;2022-11-15T10:00:42;93764.41;;;5.89;76.85
75219;BME280;63801;49.414;19.474;2022-11-15T10:03:11;93754.81;;;5.97;76.63
75219;BME280;63801;49.414;19.474;2022-11-15T10:05:16;93760.75;;;6.02;76.43
75219;BME280;63801;49.414;19.474;2022-11-15T10:09:51;93749.44;;;6.05;76.07
75219;BME280;63801;49.414;19.474;2022-11-15T10:11:52;93744.22;;;6.09;76.10
75219;BME280;63801;49.414;19.474;2022-11-15T10:13:57;93740.31;;;6.06;76.24
75219;BME280;63801;49.414;19.474;2022-11-15T10:18:52;93742.97;;;6.15;75.93
75219;BME280;63801;49.414;19.474;2022-11-15T10:21:02;93738.06;;;6.17;76.14
75219;BME280;63801;49.414;19.474;2022-11-15T10:23:16;93741.03;;;6.24;76.33
75219;BME280;63801;49.414;19.474;2022-11-15T10:27:18;93733.13;;;6.36;76.40
75219;BME280;63801;49.414;19.474;2022-11-15T10:29:20;93731.22;;;6.37;76.16
75219;BME280;63801;49.414;19.474;2022-11-15T10:31:26;93731.97;;;6.46;76.34
75219;BME280;63801;49.414;19.474;2022-11-15T10:33:31;93731.00;;;6.50;76.20
75219;BME280;63801;49.414;19.474;2022-11-15T10:35:35;93716.66;;;6.55;76.20
75219;BME280;63801;49.414;19.474;2022-11-15T10:37:35;93727.75;;;6.65;76.31
75219;BME280;63801;49.414;19.474;2022-11-15T10:39:35;93726.59;;;6.75;76.28
75219;BME280;63801;49.414;19.474;2022-11-15T10:41:38;93715.56;;;6.76;76.13
75219;BME280;63801;49.414;19.474;2022-11-15T10:43:39;93717.22;;;6.90;75.82
75219;BME280;63801;49.414;19.474;2022-11-15T10:45:39;93724.41;;;6.98;75.82
75219;BME280;63801;49.414;19.474;2022-11-15T10:47:40;93716.63;;;7.05;75.79
75219;BME280;63801;49.414;19.474;2022-11-15T10:49:54;93711.78;;;7.19;75.83
75219;BME280;63801;49.414;19.474;2022-11-15T10:51:57;93703.16;;;7.34;75.79
75219;BME280;63801;49.414;19.474;2022-11-15T10:53:59;93708.81;;;7.53;75.62
75219;BME280;63801;49.414;19.474;2022-11-15T10:56:06;93704.84;;;7.72;75.59
75219;BME280;63801;49.414;19.474;2022-11-15T11:00:31;93701.34;;;8.04;75.08
75219;BME280;63801;49.414;19.474;2022-11-15T11:02:39;93671.03;;;8.03;74.73
75219;BME280;63801;49.414;19.474;2022-11-15T11:04:51;93677.09;;;8.25;74.72
75219;BME280;63801;49.414;19.474;2022-11-15T11:06:54;93676.81;;;8.38;74.93
75219;BME280;63801;49.414;19.474;2022-11-15T11:08:57;93658.78;;;8.39;74.60
75219;BME280;63801;49.414;19.474;2022-11-15T11:11:00;93664.13;;;8.63;74.57
75219;BME280;63801;49.414;19.474;2022-11-15T11:13:23;93661.88;;;8.77;74.51
75219;BME280;63801;49.414;19.474;2022-11-15T11:15:26;93656.38;;;8.86;74.26
75219;BME280;63801;49.414;19.474;2022-11-15T11:17:38;93656.69;;;8.96;74.34
75219;BME280;63801;49.414;19.474;2022-11-15T11:22:01;93663.28;;;9.11;73.67
75219;BME280;63801;49.414;19.474;2022-11-15T11:26:48;93657.44;;;9.09;73.74
75219;BME280;63801;49.414;19.474;2022-11-15T11:31:31;93640.66;;;9.00;73.25
75219;BME280;63801;49.414;19.474;2022-11-15T11:33:46;93644.81;;;8.97;73.02
75219;BME280;63801;49.414;19.474;2022-11-15T11:36:18;93643.94;;;8.93;72.93
75219;BME280;63801;49.414;19.474;2022-11-15T11:47:24;93636.16;;;8.64;73.30